createdAt,value
2019-03-05T00:00:42.857Z,99.99
2019-03-05T00:01:42.834Z,99.99
2019-03-05T00:02:42.871Z,99.99
2019-03-05T00:03:42.793Z,99.97
2019-03-05T00:04:42.832Z,99.99
2019-03-05T00:05:42.742Z,99.99
2019-03-05T00:06:42.731Z,99.59
2019-03-05T00:07:42.709Z,99.99
2019-03-05T00:08:42.729Z,99.99
2019-03-05T00:09:42.688Z,99.88
2019-03-05T00:10:43.669Z,99.97
2019-03-05T00:11:42.622Z,99.50
2019-03-05T00:12:43.180Z,99.99
2019-03-05T00:13:42.594Z,99.99
2019-03-05T00:14:42.560Z,99.97
2019-03-05T00:15:42.537Z,98.64
2019-03-05T00:16:42.513Z,98.45
2019-03-05T00:17:42.504Z,98.36
2019-03-05T00:18:42.497Z,98.07
2019-03-05T00:19:42.455Z,97.88
2019-03-05T00:20:42.432Z,98.36
2019-03-05T00:21:42.423Z,98.64
2019-03-05T00:22:43.170Z,99.02
2019-03-05T00:23:42.365Z,98.74
2019-03-05T00:24:42.360Z,98.55
2019-03-05T00:25:42.330Z,99.50
2019-03-05T00:26:42.299Z,99.59
2019-03-05T00:27:43.171Z,99.21
2019-03-05T00:28:42.263Z,98.74
2019-03-05T00:29:42.258Z,99.11
2019-03-05T00:30:42.217Z,97.97
2019-03-05T00:31:42.193Z,98.17
2019-03-05T00:32:42.177Z,98.74
2019-03-05T00:33:42.151Z,97.69
2019-03-05T00:34:42.131Z,97.78
2019-03-05T00:35:42.138Z,98.26
2019-03-05T00:36:42.086Z,97.78
2019-03-05T00:37:42.063Z,98.36
2019-03-05T00:38:42.059Z,98.07
2019-03-05T00:39:42.026Z,97.88
2019-03-05T00:40:42.008Z,98.07
2019-03-05T00:41:41.999Z,97.88
2019-03-05T00:42:41.972Z,97.22
2019-03-05T00:43:41.939Z,97.69
2019-03-05T00:44:41.913Z,98.07
2019-03-05T00:45:41.898Z,97.97
2019-03-05T00:46:41.890Z,97.88
2019-03-05T00:47:41.870Z,98.26
2019-03-05T00:48:41.839Z,98.64
2019-03-05T00:49:41.810Z,98.26
2019-03-05T00:50:41.787Z,98.26
2019-03-05T00:51:41.764Z,97.78
2019-03-05T00:52:41.764Z,98.26
2019-03-05T00:53:41.742Z,98.07
2019-03-05T00:54:41.701Z,98.07
2019-03-05T00:55:41.682Z,97.78
2019-03-05T00:56:41.659Z,97.50
2019-03-05T00:57:41.637Z,97.78
2019-03-05T00:58:41.630Z,97.41
2019-03-05T00:59:41.610Z,97.69
2019-03-05T01:00:41.574Z,96.84
2019-03-05T01:01:41.559Z,97.41
2019-03-05T01:02:41.536Z,97.50
2019-03-05T01:03:42.186Z,97.22
2019-03-05T01:04:41.510Z,98.07
2019-03-05T01:05:41.465Z,98.07
2019-03-05T01:06:42.229Z,97.41
2019-03-05T01:07:41.422Z,97.41
2019-03-05T01:08:41.406Z,97.12
2019-03-05T01:09:41.391Z,96.55
2019-03-05T01:10:41.377Z,95.98
2019-03-05T01:11:41.342Z,95.51
2019-03-05T01:12:41.338Z,95.51
2019-03-05T01:13:43.181Z,95.51
2019-03-05T01:14:41.284Z,95.32
2019-03-05T01:15:41.253Z,94.84
2019-03-05T01:16:41.250Z,95.03
2019-03-05T01:17:41.206Z,94.46
2019-03-05T01:18:41.190Z,95.03
2019-03-05T01:19:41.174Z,95.32
2019-03-05T01:20:41.161Z,94.37
2019-03-05T01:21:41.125Z,93.99
2019-03-05T01:22:41.147Z,93.99
2019-03-05T01:23:41.083Z,94.18
2019-03-05T01:24:41.079Z,93.60
2019-03-05T01:25:41.034Z,93.70
2019-03-05T01:26:41.016Z,93.99
2019-03-05T01:27:40.999Z,93.60
2019-03-05T01:28:40.987Z,93.60
2019-03-05T01:29:40.972Z,93.99
2019-03-05T01:30:40.929Z,94.37
2019-03-05T01:31:40.926Z,93.99
2019-03-05T01:32:40.890Z,93.56
2019-03-05T01:33:40.866Z,93.41
2019-03-05T01:34:41.680Z,93.94
2019-03-05T01:35:40.850Z,93.18
2019-03-05T01:36:40.807Z,93.84
2019-03-05T01:37:40.782Z,93.94
2019-03-05T01:38:40.761Z,94.32
2019-03-05T01:39:40.748Z,94.51
2019-03-05T01:40:40.733Z,94.32
2019-03-05T01:41:40.711Z,94.79
2019-03-05T01:42:40.670Z,94.70
2019-03-05T01:43:40.653Z,94.60
2019-03-05T01:44:40.631Z,95.17
2019-03-05T01:45:40.625Z,95.94
2019-03-05T01:46:40.585Z,96.12
2019-03-05T01:47:40.581Z,96.03
2019-03-05T01:48:40.544Z,96.50
2019-03-05T01:49:40.518Z,96.60
2019-03-05T01:50:40.501Z,97.27
2019-03-05T01:51:40.568Z,97.07
2019-03-05T01:52:40.488Z,97.74
2019-03-05T01:53:40.436Z,97.97
2019-03-05T01:54:40.419Z,98.50
2019-03-05T01:55:40.388Z,98.97
2019-03-05T01:56:40.364Z,98.54
2019-03-05T01:57:40.367Z,98.59
2019-03-05T01:58:40.327Z,99.54
2019-03-05T01:59:40.305Z,99.64
2019-03-05T02:00:40.288Z,99.99
2019-03-05T02:01:40.263Z,99.77
2019-03-05T02:02:40.247Z,99.92
2019-03-05T02:03:40.233Z,99.92
2019-03-05T02:04:40.198Z,99.11
2019-03-05T02:05:40.174Z,99.99
2019-03-05T02:06:40.150Z,99.87
2019-03-05T02:07:40.727Z,99.44
2019-03-05T02:08:40.189Z,99.99
2019-03-05T02:09:40.102Z,99.99
2019-03-05T02:10:40.063Z,99.99
2019-03-05T02:11:40.056Z,99.99
2019-03-05T02:12:40.032Z,99.99
2019-03-05T02:13:40.720Z,99.99
2019-03-05T02:14:39.979Z,99.99
2019-03-05T02:15:40.687Z,99.99
2019-03-05T02:16:39.936Z,99.99
2019-03-05T02:17:39.926Z,99.99
2019-03-05T02:18:39.888Z,99.99
2019-03-05T02:19:39.867Z,99.99
2019-03-05T02:20:39.848Z,99.99
2019-03-05T02:21:39.826Z,99.99
2019-03-05T02:22:39.817Z,99.99
2019-03-05T02:23:39.779Z,99.99
2019-03-05T02:24:39.759Z,99.99
2019-03-05T02:25:39.736Z,99.99
2019-03-05T02:26:39.715Z,99.99
2019-03-05T02:27:39.707Z,99.99
2019-03-05T02:28:39.669Z,99.99
2019-03-05T02:29:39.651Z,99.99
2019-03-05T02:30:40.232Z,99.99
2019-03-05T02:31:39.601Z,99.99
2019-03-05T02:32:39.597Z,99.99
2019-03-05T02:33:39.581Z,99.99
2019-03-05T02:34:39.554Z,99.99
2019-03-05T02:35:39.519Z,99.99
2019-03-05T02:36:39.498Z,99.99
2019-03-05T02:37:39.476Z,99.99
2019-03-05T02:38:39.463Z,99.99
2019-03-05T02:39:39.434Z,99.99
2019-03-05T02:40:39.424Z,99.92
2019-03-05T02:41:39.387Z,99.99
2019-03-05T02:42:39.366Z,99.97
2019-03-05T02:43:39.345Z,99.99
2019-03-05T02:44:40.265Z,99.16
2019-03-05T02:45:39.323Z,99.99
2019-03-05T02:46:39.274Z,99.99
2019-03-05T02:47:39.256Z,99.99
2019-03-05T02:48:39.235Z,99.99
2019-03-05T02:49:39.228Z,99.83
2019-03-05T02:50:39.207Z,99.92
2019-03-05T02:51:39.168Z,99.92
2019-03-05T02:52:39.148Z,99.99
2019-03-05T02:53:39.116Z,99.99
2019-03-05T02:54:39.102Z,99.99
2019-03-05T02:55:39.098Z,99.99
2019-03-05T02:56:39.056Z,99.99
2019-03-05T02:57:39.056Z,99.83
2019-03-05T02:58:39.012Z,99.99
2019-03-05T02:59:38.999Z,99.73
2019-03-05T03:00:38.997Z,99.99
2019-03-05T03:01:38.956Z,99.99
2019-03-05T03:02:38.927Z,99.92
2019-03-05T03:03:38.904Z,99.92
2019-03-05T03:04:38.884Z,99.92
2019-03-05T03:05:38.867Z,99.92
2019-03-05T03:06:38.850Z,99.99
2019-03-05T03:07:38.829Z,99.99
2019-03-05T03:08:38.814Z,99.99
2019-03-05T03:09:38.772Z,99.99
2019-03-05T03:10:38.758Z,99.99
2019-03-05T03:11:38.730Z,99.99
2019-03-05T03:12:38.709Z,99.64
2019-03-05T03:13:38.720Z,99.92
2019-03-05T03:14:38.667Z,99.99
2019-03-05T03:15:38.644Z,99.99
2019-03-05T03:16:38.624Z,99.99
2019-03-05T03:17:38.616Z,99.99
2019-03-05T03:18:38.593Z,99.99
2019-03-05T03:19:38.557Z,99.99
2019-03-05T03:20:38.545Z,99.99
2019-03-05T03:21:38.536Z,99.99
2019-03-05T03:22:38.491Z,99.99
2019-03-05T03:23:38.498Z,99.99
2019-03-05T03:24:38.448Z,99.99
2019-03-05T03:25:38.423Z,99.99
2019-03-05T03:26:38.405Z,99.99
2019-03-05T03:27:38.383Z,99.99
2019-03-05T03:28:38.367Z,99.99
2019-03-05T03:29:39.193Z,99.99
2019-03-05T03:30:38.321Z,99.99
2019-03-05T03:31:38.292Z,99.99
2019-03-05T03:32:39.196Z,99.99
2019-03-05T03:33:38.253Z,99.99
2019-03-05T03:34:38.225Z,99.99
2019-03-05T03:35:38.276Z,99.99
2019-03-05T03:36:38.184Z,99.99
2019-03-05T03:37:38.160Z,99.99
2019-03-05T03:38:38.145Z,99.99
2019-03-05T03:39:38.121Z,99.99
2019-03-05T03:40:38.101Z,99.99
2019-03-05T03:41:38.093Z,99.99
2019-03-05T03:42:38.049Z,99.99
2019-03-05T03:43:38.029Z,99.99
2019-03-05T03:44:38.009Z,99.99
2019-03-05T03:45:38.001Z,99.99
2019-03-05T03:46:37.966Z,99.99
2019-03-05T03:47:37.937Z,99.99
2019-03-05T03:48:37.938Z,99.99
2019-03-05T03:49:37.909Z,99.99
2019-03-05T03:50:37.877Z,99.99
2019-03-05T03:51:37.854Z,99.99
2019-03-05T03:52:38.740Z,99.99
2019-03-05T03:53:37.844Z,99.99
2019-03-05T03:54:37.802Z,99.99
2019-03-05T03:55:37.765Z,99.99
2019-03-05T03:56:37.741Z,99.99
2019-03-05T03:57:37.721Z,99.99
2019-03-05T03:58:37.694Z,99.99
2019-03-05T03:59:37.693Z,99.99
2019-03-05T04:00:38.214Z,99.99
2019-03-05T04:01:37.629Z,99.99
2019-03-05T04:02:37.615Z,99.99
2019-03-05T04:03:37.623Z,99.99
2019-03-05T04:04:37.568Z,99.99
2019-03-05T04:05:37.587Z,99.99
2019-03-05T04:06:37.525Z,99.99
2019-03-05T04:07:37.512Z,99.99
2019-03-05T04:08:37.478Z,99.99
2019-03-05T04:09:37.466Z,99.99
2019-03-05T04:10:37.435Z,99.99
2019-03-05T04:11:37.409Z,99.99
2019-03-05T04:12:37.420Z,99.99
2019-03-05T04:13:37.372Z,99.99
2019-03-05T04:14:37.351Z,99.99
2019-03-05T04:15:37.345Z,99.99
2019-03-05T04:16:37.320Z,99.99
2019-03-05T04:17:37.278Z,99.99
2019-03-05T04:18:37.282Z,99.99
2019-03-05T04:19:37.247Z,99.99
2019-03-05T04:20:37.699Z,99.99
2019-03-05T04:21:37.739Z,99.99
2019-03-05T04:22:37.171Z,99.99
2019-03-05T04:23:37.164Z,99.99
2019-03-05T04:24:37.127Z,99.99
2019-03-05T04:25:37.100Z,99.99
2019-03-05T04:26:37.084Z,99.99
2019-03-05T04:27:37.059Z,99.99
2019-03-05T04:28:37.150Z,99.99
2019-03-05T04:29:38.704Z,99.99
2019-03-05T04:30:36.992Z,99.99
2019-03-05T04:31:36.969Z,99.99
2019-03-05T04:32:36.955Z,99.99
2019-03-05T04:33:36.928Z,99.99
2019-03-05T04:34:36.918Z,99.99
2019-03-05T04:35:36.883Z,99.99
2019-03-05T04:36:36.879Z,99.99
2019-03-05T04:37:36.838Z,99.99
2019-03-05T04:38:36.817Z,99.99
2019-03-05T04:39:36.793Z,99.99
2019-03-05T04:40:36.784Z,99.99
2019-03-05T04:41:36.764Z,99.99
2019-03-05T04:42:36.729Z,99.99
2019-03-05T04:43:36.706Z,99.99
2019-03-05T04:44:36.707Z,99.99
2019-03-05T04:45:37.219Z,99.99
2019-03-05T04:46:36.695Z,99.99
2019-03-05T04:47:36.616Z,99.99
2019-03-05T04:48:36.597Z,99.99
2019-03-05T04:49:36.571Z,99.99
2019-03-05T04:50:36.555Z,99.99
2019-03-05T04:51:36.538Z,99.99
2019-03-05T04:52:37.214Z,99.99
2019-03-05T04:53:37.210Z,99.99
2019-03-05T04:54:36.462Z,99.99
2019-03-05T04:55:36.441Z,99.99
2019-03-05T04:56:36.435Z,99.99
2019-03-05T04:57:36.398Z,99.99
2019-03-05T04:58:36.372Z,99.99
2019-03-05T04:59:36.350Z,99.99
2019-03-05T05:00:36.328Z,99.99
2019-03-05T05:01:36.309Z,99.99
2019-03-05T05:02:36.307Z,99.99
2019-03-05T05:03:36.270Z,99.99
2019-03-05T05:04:36.255Z,99.99
2019-03-05T05:05:36.220Z,99.99
2019-03-05T05:06:36.198Z,99.99
2019-03-05T05:07:36.177Z,99.99
2019-03-05T05:08:36.171Z,99.99
2019-03-05T05:09:37.891Z,99.99
2019-03-05T05:10:36.111Z,99.99
2019-03-05T05:11:36.087Z,99.99
2019-03-05T05:12:36.072Z,99.99
2019-03-05T05:13:36.704Z,99.99
2019-03-05T05:14:36.043Z,99.99
2019-03-05T05:15:36.011Z,99.99
2019-03-05T05:16:35.984Z,99.92
2019-03-05T05:17:35.959Z,99.92
2019-03-05T05:18:35.937Z,99.73
2019-03-05T05:19:35.938Z,99.99
2019-03-05T05:20:35.889Z,99.92
2019-03-05T05:21:35.867Z,99.99
2019-03-05T05:22:35.852Z,99.26
2019-03-05T05:23:35.828Z,99.07
2019-03-05T05:24:35.820Z,98.69
2019-03-05T05:25:35.804Z,99.54
2019-03-05T05:26:35.762Z,99.35
2019-03-05T05:27:35.754Z,99.26
2019-03-05T05:28:35.862Z,98.97
2019-03-05T05:29:36.705Z,99.35
2019-03-05T05:30:35.671Z,99.92
2019-03-05T05:31:35.677Z,99.44
2019-03-05T05:32:35.636Z,99.44
2019-03-05T05:33:35.607Z,99.99
2019-03-05T05:34:35.586Z,99.99
2019-03-05T05:35:35.569Z,99.99
2019-03-05T05:36:35.563Z,99.99
2019-03-05T05:37:35.519Z,99.99
2019-03-05T05:38:35.509Z,99.99
2019-03-05T05:39:36.208Z,99.99
2019-03-05T05:40:35.453Z,99.99
2019-03-05T05:41:35.447Z,99.99
2019-03-05T05:42:35.446Z,99.99
2019-03-05T05:43:35.397Z,99.99
2019-03-05T05:44:35.375Z,99.99
2019-03-05T05:45:36.259Z,99.99
2019-03-05T05:46:35.347Z,99.99
2019-03-05T05:47:35.299Z,99.99
2019-03-05T05:48:35.283Z,99.99
2019-03-05T05:49:35.259Z,99.99
2019-03-05T05:50:36.210Z,99.99
2019-03-05T05:51:35.212Z,99.99
2019-03-05T05:52:35.206Z,99.99
2019-03-05T05:53:35.168Z,99.99
2019-03-05T05:54:35.165Z,99.99
2019-03-05T05:55:35.128Z,99.99
2019-03-05T05:56:35.125Z,99.99
2019-03-05T05:57:35.960Z,99.99
2019-03-05T05:58:35.058Z,99.99
2019-03-05T05:59:35.063Z,99.99
2019-03-05T06:00:35.018Z,99.99
2019-03-05T06:01:34.992Z,99.99
2019-03-05T06:02:34.967Z,99.99
2019-03-05T06:03:36.987Z,99.99
2019-03-05T06:04:34.948Z,99.99
2019-03-05T06:05:34.908Z,99.99
2019-03-05T06:06:34.883Z,99.99
2019-03-05T06:07:34.858Z,99.99
2019-03-05T06:08:34.842Z,99.99
2019-03-05T06:09:34.838Z,99.99
2019-03-05T06:10:34.794Z,99.99
2019-03-05T06:11:34.791Z,99.99
2019-03-05T06:12:34.775Z,99.99
2019-03-05T06:13:35.262Z,99.99
2019-03-05T06:14:34.712Z,99.99
2019-03-05T06:15:34.686Z,99.99
2019-03-05T06:16:34.662Z,99.99
2019-03-05T06:17:34.685Z,99.99
2019-03-05T06:18:34.614Z,99.99
2019-03-05T06:19:34.643Z,99.99
2019-03-05T06:20:34.572Z,99.99
2019-03-05T06:21:34.549Z,99.99
2019-03-05T06:22:34.528Z,99.99
2019-03-05T06:23:34.523Z,99.99
2019-03-05T06:24:34.492Z,99.99
2019-03-05T06:25:34.462Z,99.99
2019-03-05T06:26:35.212Z,99.99
2019-03-05T06:27:34.441Z,99.99
2019-03-05T06:28:34.398Z,99.99
2019-03-05T06:29:34.373Z,99.99
2019-03-05T06:30:34.349Z,99.99
2019-03-05T06:31:34.330Z,99.99
2019-03-05T06:32:34.308Z,99.99
2019-03-05T06:33:35.248Z,99.99
2019-03-05T06:34:34.263Z,99.99
2019-03-05T06:35:34.245Z,99.99
2019-03-05T06:36:34.238Z,99.99
2019-03-05T06:37:34.198Z,99.99
2019-03-05T06:38:34.183Z,99.99
2019-03-05T06:39:34.154Z,99.99
2019-03-05T06:40:34.125Z,99.99
2019-03-05T06:41:34.104Z,99.99
2019-03-05T06:42:34.099Z,99.99
2019-03-05T06:43:34.062Z,99.99
2019-03-05T06:44:36.817Z,99.99
2019-03-05T06:45:34.036Z,99.99
2019-03-05T06:46:34.760Z,99.99
2019-03-05T06:47:33.988Z,99.99
2019-03-05T06:48:33.968Z,99.99
2019-03-05T06:49:34.757Z,99.99
2019-03-05T06:50:33.915Z,99.99
2019-03-05T06:51:33.883Z,99.99
2019-03-05T06:52:33.862Z,99.99
2019-03-05T06:53:33.853Z,99.99
2019-03-05T06:54:33.816Z,99.99
2019-03-05T06:55:33.813Z,99.99
2019-03-05T06:56:33.774Z,99.99
2019-03-05T06:57:33.750Z,99.99
2019-03-05T06:58:33.726Z,99.99
2019-03-05T06:59:33.720Z,99.99
2019-03-05T07:00:33.714Z,99.99
2019-03-05T07:01:33.657Z,99.99
2019-03-05T07:02:33.640Z,99.99
2019-03-05T07:03:33.617Z,99.99
2019-03-05T07:04:33.597Z,99.99
2019-03-05T07:05:33.594Z,99.99
2019-03-05T07:06:33.551Z,99.99
2019-03-05T07:07:33.523Z,99.99
2019-03-05T07:08:33.508Z,99.99
2019-03-05T07:09:33.485Z,99.99
2019-03-05T07:10:33.457Z,99.99
2019-03-05T07:11:33.459Z,99.99
2019-03-05T07:12:33.413Z,99.99
2019-03-05T07:13:33.391Z,99.99
2019-03-05T07:14:33.365Z,99.99
2019-03-05T07:15:33.353Z,99.99
2019-03-05T07:16:33.331Z,99.99
2019-03-05T07:17:35.220Z,99.99
2019-03-05T07:18:33.286Z,99.99
2019-03-05T07:19:33.255Z,99.99
2019-03-05T07:20:33.230Z,99.99
2019-03-05T07:21:33.224Z,99.99
2019-03-05T07:22:33.197Z,99.99
2019-03-05T07:23:33.167Z,99.99
2019-03-05T07:24:33.163Z,99.99
2019-03-05T07:25:33.134Z,99.99
2019-03-05T07:26:33.097Z,99.99
2019-03-05T07:27:33.085Z,99.99
2019-03-05T07:28:33.054Z,99.99
2019-03-05T07:29:33.048Z,99.99
2019-03-05T07:30:33.006Z,99.99
2019-03-05T07:31:32.988Z,99.99
2019-03-05T07:32:32.976Z,99.99
2019-03-05T07:33:32.959Z,99.99
2019-03-05T07:34:32.929Z,99.99
2019-03-05T07:35:32.910Z,99.99
2019-03-05T07:36:32.873Z,99.99
2019-03-05T07:37:32.856Z,99.99
2019-03-05T07:38:32.845Z,99.99
2019-03-05T07:39:32.807Z,99.99
2019-03-05T07:40:32.795Z,99.99
2019-03-05T07:41:32.761Z,99.99
2019-03-05T07:42:32.740Z,99.99
2019-03-05T07:43:36.400Z,99.99
2019-03-05T07:44:32.718Z,99.99
2019-03-05T07:45:32.674Z,99.99
2019-03-05T07:46:32.647Z,99.99
2019-03-05T07:47:33.303Z,99.99
2019-03-05T07:48:32.616Z,99.99
2019-03-05T07:49:43.241Z,99.99
2019-03-05T07:50:32.600Z,99.99
2019-03-05T07:51:32.541Z,99.99
2019-03-05T07:52:32.531Z,99.99
2019-03-05T07:53:32.495Z,99.99
2019-03-05T07:54:32.475Z,99.99
2019-03-05T07:55:32.450Z,99.99
2019-03-05T07:56:33.380Z,99.99
2019-03-05T07:57:32.432Z,99.99
2019-03-05T07:58:32.389Z,99.99
2019-03-05T07:59:32.373Z,99.99
2019-03-05T08:00:32.338Z,99.99
2019-03-05T08:01:32.327Z,99.99
2019-03-05T08:02:32.305Z,99.99
2019-03-05T08:03:32.287Z,99.99
2019-03-05T08:04:32.257Z,99.99
2019-03-05T08:05:32.264Z,99.99
2019-03-05T08:06:32.213Z,99.99
2019-03-05T08:07:32.183Z,99.99
2019-03-05T08:08:32.172Z,99.99
2019-03-05T08:09:32.142Z,99.99
2019-03-05T08:10:32.128Z,99.99
2019-03-05T08:11:32.116Z,99.99
2019-03-05T08:12:32.088Z,99.99
2019-03-05T08:13:32.052Z,99.99
2019-03-05T08:14:32.042Z,99.99
2019-03-05T08:15:32.021Z,99.99
2019-03-05T08:16:31.991Z,99.99
2019-03-05T08:17:31.988Z,99.99
2019-03-05T08:18:31.940Z,99.99
2019-03-05T08:19:34.062Z,99.99
2019-03-05T08:20:31.903Z,99.99
2019-03-05T08:21:31.897Z,99.99
2019-03-05T08:22:31.857Z,99.99
2019-03-05T08:23:31.846Z,99.99
2019-03-05T08:24:31.822Z,99.99
2019-03-05T08:25:33.725Z,99.99
2019-03-05T08:26:31.772Z,99.99
2019-03-05T08:27:31.763Z,99.99
2019-03-05T08:28:31.731Z,99.99
2019-03-05T08:29:31.705Z,99.99
2019-03-05T08:30:32.225Z,99.99
2019-03-05T08:31:31.661Z,99.99
2019-03-05T08:32:31.655Z,99.99
2019-03-05T08:33:31.617Z,99.99
2019-03-05T08:34:31.597Z,99.99
2019-03-05T08:35:31.577Z,99.99
2019-03-05T08:36:31.552Z,99.99
2019-03-05T08:37:31.548Z,99.99
2019-03-05T08:38:31.507Z,99.99
2019-03-05T08:39:31.485Z,99.99
2019-03-05T08:40:31.511Z,99.99
2019-03-05T08:41:31.448Z,99.99
2019-03-05T08:42:31.576Z,99.99
2019-03-05T08:43:31.397Z,99.99
2019-03-05T08:44:31.381Z,99.99
2019-03-05T08:45:31.364Z,99.99
2019-03-05T08:46:31.352Z,99.99
2019-03-05T08:47:31.311Z,99.99
2019-03-05T08:48:31.291Z,99.99
2019-03-05T08:49:31.287Z,99.99
2019-03-05T08:50:31.246Z,99.99
2019-03-05T08:51:31.222Z,99.99
2019-03-05T08:52:31.205Z,99.99
2019-03-05T08:53:31.182Z,99.99
2019-03-05T08:54:31.166Z,99.99
2019-03-05T08:55:32.229Z,99.99
2019-03-05T08:56:31.122Z,99.99
2019-03-05T08:57:31.096Z,99.99
2019-03-05T08:58:31.072Z,99.99
2019-03-05T08:59:32.689Z,99.99
2019-03-05T09:00:31.029Z,99.99
2019-03-05T09:01:31.028Z,99.99
2019-03-05T09:02:30.987Z,99.99
2019-03-05T09:03:30.998Z,99.99
2019-03-05T09:04:30.948Z,99.99
2019-03-05T09:05:30.972Z,99.99
2019-03-05T09:06:30.901Z,99.99
2019-03-05T09:07:30.878Z,99.99
2019-03-05T09:08:30.894Z,99.99
2019-03-05T09:09:30.838Z,99.99
2019-03-05T09:10:30.840Z,99.99
2019-03-05T09:11:30.791Z,99.99
2019-03-05T09:12:30.784Z,99.99
2019-03-05T09:13:32.994Z,99.99
2019-03-05T09:14:30.736Z,99.99
2019-03-05T09:15:30.706Z,99.99
2019-03-05T09:16:30.688Z,99.99
2019-03-05T09:17:30.676Z,99.99
2019-03-05T09:18:30.639Z,99.99
2019-03-05T09:19:30.619Z,99.99
2019-03-05T09:20:30.608Z,99.99
2019-03-05T09:21:30.576Z,99.99
2019-03-05T09:22:30.560Z,99.99
2019-03-05T09:23:30.556Z,99.99
2019-03-05T09:24:30.521Z,99.99
2019-03-05T09:25:30.495Z,99.99
2019-03-05T09:26:30.488Z,99.99
2019-03-05T09:27:30.508Z,99.99
2019-03-05T09:28:30.428Z,99.99
2019-03-05T09:29:30.412Z,99.99
2019-03-05T09:30:30.396Z,99.99
2019-03-05T09:31:30.397Z,99.99
2019-03-05T09:32:30.350Z,99.99
2019-03-05T09:33:30.327Z,99.99
2019-03-05T09:34:30.306Z,99.99
2019-03-05T09:35:30.285Z,99.99
2019-03-05T09:36:30.261Z,99.99
2019-03-05T09:37:30.259Z,99.99
2019-03-05T09:38:30.225Z,99.99
2019-03-05T09:39:30.221Z,99.99
2019-03-05T09:40:30.207Z,99.99
2019-03-05T09:41:30.162Z,99.99
2019-03-05T09:42:39.528Z,99.99
2019-03-05T09:43:30.127Z,99.99
2019-03-05T09:44:30.098Z,99.99
2019-03-05T09:45:30.109Z,99.99
2019-03-05T09:46:30.058Z,99.99
2019-03-05T09:47:30.037Z,99.99
2019-03-05T09:48:30.021Z,99.99
2019-03-05T09:49:29.996Z,99.99
2019-03-05T09:50:32.022Z,99.99
2019-03-05T09:51:29.973Z,99.99
2019-03-05T09:52:29.941Z,99.99
2019-03-05T09:53:29.916Z,99.99
2019-03-05T09:54:29.898Z,99.99
2019-03-05T09:55:29.878Z,99.99
2019-03-05T09:56:29.883Z,99.99
2019-03-05T09:57:30.737Z,99.99
2019-03-05T09:58:29.833Z,99.99
2019-03-05T09:59:29.798Z,99.99
2019-03-05T10:00:29.774Z,99.99
2019-03-05T10:01:29.757Z,99.99
2019-03-05T10:02:29.752Z,99.99
2019-03-05T10:03:29.731Z,99.99
2019-03-05T10:04:29.695Z,99.99
2019-03-05T10:05:29.673Z,99.99
2019-03-05T10:06:29.654Z,99.99
2019-03-05T10:07:29.652Z,99.50
2019-03-05T10:08:32.678Z,99.99
2019-03-05T10:09:29.609Z,99.60
2019-03-05T10:10:29.578Z,97.60
2019-03-05T10:11:29.555Z,98.46
2019-03-05T10:12:30.278Z,97.98
2019-03-05T10:13:29.510Z,96.89
2019-03-05T10:14:29.492Z,96.12
2019-03-05T10:15:30.282Z,94.51
2019-03-05T10:16:29.459Z,93.70
2019-03-05T10:17:37.631Z,93.51
2019-03-05T10:18:29.440Z,94.27
2019-03-05T10:19:29.398Z,94.65
2019-03-05T10:20:29.375Z,93.98
2019-03-05T10:21:30.313Z,93.18
2019-03-05T10:22:29.332Z,93.94
2019-03-05T10:23:29.336Z,93.22
2019-03-05T10:24:29.312Z,92.51
2019-03-05T10:25:29.278Z,91.27
2019-03-05T10:26:29.255Z,90.99
2019-03-05T10:27:29.243Z,90.94
2019-03-05T10:28:29.225Z,91.17
2019-03-05T10:29:29.212Z,91.65
2019-03-05T10:30:29.204Z,91.65
2019-03-05T10:31:29.172Z,91.84
2019-03-05T10:32:29.146Z,91.56
2019-03-05T10:33:29.128Z,91.94
2019-03-05T10:34:29.107Z,92.13
2019-03-05T10:35:29.105Z,92.70
2019-03-05T10:36:29.067Z,92.79
2019-03-05T10:37:29.047Z,91.65
2019-03-05T10:38:29.032Z,90.36
2019-03-05T10:39:30.819Z,91.22
2019-03-05T10:40:28.988Z,90.84
2019-03-05T10:41:28.986Z,90.84
2019-03-05T10:42:31.952Z,89.51
2019-03-05T10:43:28.935Z,90.42
2019-03-05T10:44:28.938Z,90.32
2019-03-05T10:45:28.888Z,90.94
2019-03-05T10:46:28.878Z,90.75
2019-03-05T10:47:28.883Z,90.84
2019-03-05T10:48:31.748Z,91.56
2019-03-05T10:49:29.748Z,91.80
2019-03-05T10:50:28.799Z,91.70
2019-03-05T10:51:28.779Z,90.94
2019-03-05T10:52:28.761Z,91.56
2019-03-05T10:53:29.292Z,92.79
2019-03-05T10:54:28.724Z,91.56
2019-03-05T10:55:28.704Z,90.89
2019-03-05T10:56:28.684Z,90.70
2019-03-05T10:57:28.663Z,90.99
2019-03-05T10:58:34.004Z,90.70
2019-03-05T10:59:28.648Z,91.65
2019-03-05T11:00:28.606Z,92.22
2019-03-05T11:01:28.590Z,90.99
2019-03-05T11:02:28.568Z,90.03
2019-03-05T11:03:28.547Z,90.13
2019-03-05T11:04:28.537Z,89.13
2019-03-05T11:05:28.530Z,88.51
2019-03-05T11:06:29.290Z,87.65
2019-03-05T11:07:29.297Z,87.41
2019-03-05T11:08:28.450Z,88.75
2019-03-05T11:09:28.441Z,88.18
2019-03-05T11:10:28.431Z,88.27
2019-03-05T11:11:28.425Z,89.32
2019-03-05T11:12:28.379Z,89.98
2019-03-05T11:13:28.368Z,89.22
2019-03-05T11:14:28.360Z,90.42
2019-03-05T11:15:28.319Z,90.51
2019-03-05T11:16:31.055Z,90.51
2019-03-05T11:17:28.328Z,90.51
2019-03-05T11:18:29.877Z,90.22
2019-03-05T11:19:28.241Z,90.84
2019-03-05T11:20:28.241Z,89.55
2019-03-05T11:21:28.201Z,87.88
2019-03-05T11:22:28.202Z,85.50
2019-03-05T11:23:28.186Z,85.50
2019-03-05T11:24:28.170Z,85.50
2019-03-05T11:25:28.128Z,85.06
2019-03-05T11:26:28.112Z,83.64
2019-03-05T11:27:28.093Z,82.59
2019-03-05T11:28:28.094Z,82.87
2019-03-05T11:29:28.077Z,83.24
2019-03-05T11:30:35.726Z,80.76
2019-03-05T11:31:28.035Z,81.38
2019-03-05T11:32:28.014Z,82.06
2019-03-05T11:33:28.012Z,82.63
2019-03-05T11:34:27.974Z,80.15
2019-03-05T11:35:27.961Z,78.56
2019-03-05T11:36:27.946Z,77.86
2019-03-05T11:37:27.933Z,78.33
2019-03-05T11:38:27.914Z,78.56
2019-03-05T11:39:27.915Z,78.47
2019-03-05T11:40:27.881Z,76.75
2019-03-05T11:41:27.874Z,77.70
2019-03-05T11:42:27.847Z,77.67
2019-03-05T11:43:27.829Z,78.67
2019-03-05T11:44:27.808Z,79.25
2019-03-05T11:45:27.792Z,80.64
2019-03-05T11:46:27.793Z,81.78
2019-03-05T11:47:27.760Z,81.84
2019-03-05T11:48:27.743Z,82.50
2019-03-05T11:49:27.727Z,82.75
2019-03-05T11:50:27.760Z,83.41
2019-03-05T11:51:27.704Z,84.46
2019-03-05T11:52:27.676Z,84.84
2019-03-05T11:53:27.664Z,85.22
2019-03-05T11:54:27.648Z,84.84
2019-03-05T11:55:27.629Z,85.32
2019-03-05T11:56:27.630Z,85.66
2019-03-05T11:57:27.591Z,85.99
2019-03-05T11:58:27.571Z,87.37
2019-03-05T11:59:27.555Z,88.13
2019-03-05T12:00:27.538Z,89.13
2019-03-05T12:01:27.535Z,89.27
2019-03-05T12:02:27.502Z,89.89
2019-03-05T12:03:28.297Z,91.60
2019-03-05T12:04:27.473Z,92.18
2019-03-05T12:05:27.458Z,92.65
2019-03-05T12:06:27.429Z,93.94
2019-03-05T12:07:27.447Z,93.08
2019-03-05T12:08:28.283Z,93.55
2019-03-05T12:09:27.377Z,93.41
2019-03-05T12:10:27.352Z,92.41
2019-03-05T12:11:27.328Z,91.22
2019-03-05T12:12:27.315Z,87.26
2019-03-05T12:13:27.320Z,86.30
2019-03-05T12:14:27.274Z,85.45
2019-03-05T12:15:27.275Z,85.39
2019-03-05T12:16:27.242Z,83.77
2019-03-05T12:17:27.221Z,82.19
2019-03-05T12:18:27.242Z,80.90
2019-03-05T12:19:27.189Z,79.52
2019-03-05T12:20:27.218Z,79.10
2019-03-05T12:21:27.177Z,80.24
2019-03-05T12:22:27.948Z,81.01
2019-03-05T12:23:27.121Z,81.24
2019-03-05T12:24:27.140Z,80.19
2019-03-05T12:25:27.092Z,79.38
2019-03-05T12:26:27.093Z,79.90
2019-03-05T12:27:27.075Z,80.04
2019-03-05T12:28:27.047Z,78.41
2019-03-05T12:29:27.034Z,78.13
2019-03-05T12:30:27.028Z,78.26
2019-03-05T12:31:26.999Z,78.30
2019-03-05T12:32:26.983Z,76.98
2019-03-05T12:33:26.983Z,77.95
2019-03-05T12:34:26.957Z,80.43
2019-03-05T12:35:26.960Z,81.67
2019-03-05T12:36:26.963Z,81.54
2019-03-05T12:37:26.914Z,81.92
2019-03-05T12:38:26.899Z,81.92
2019-03-05T12:39:26.892Z,82.30
2019-03-05T12:40:26.867Z,81.48
2019-03-05T12:41:26.854Z,81.15
2019-03-05T12:43:53.759Z,81.21
2019-03-05T12:44:53.728Z,81.68
2019-03-05T12:47:35.778Z,81.30
2019-03-05T12:48:39.872Z,79.91
2019-03-05T12:49:35.724Z,79.86
2019-03-05T12:50:35.722Z,78.72
2019-03-05T12:51:35.680Z,79.71
2019-03-05T12:54:00.266Z,78.18
2019-03-05T12:55:00.315Z,78.81
2019-03-05T12:56:00.219Z,80.39
2019-03-05T12:57:00.203Z,81.15